Time;durP1;ratioP1;P1;durP2;ratioP2;P2;SDS_P1;SDS_P2;PMS_P1;PMS_P2;Temp;Humidity;BMP_temperature;BMP_pressure;BME280_temperature;BME280_humidity;BME280_pressure;Samples;Min_cycle;Max_cycle;Signal;HPM_P1;HPM_P2
2020/12/13 00:01:37;;;;;;;11.07;5.50;;;8.70;77.60;;;;;;5023601;28;20077;-73
2020/12/13 00:04:03;;;;;;;11.77;5.30;;;9.30;77.80;;;;;;5014557;28;20088;-73
2020/12/13 00:06:33;;;;;;;11.07;4.97;;;9.00;77.60;;;;;;5015028;28;20034;-73
2020/12/13 00:09:04;;;;;;;12.15;4.25;;;9.10;77.80;;;;;;5014136;28;20042;-73
2020/12/13 00:11:30;;;;;;;11.35;4.95;;;8.90;77.50;;;;;;5014602;28;20112;-73
2020/12/13 00:13:56;;;;;;;11.75;4.57;;;9.20;77.80;;;;;;5014546;28;20034;-73
2020/12/13 00:16:22;;;;;;;9.07;4.18;;;9.40;77.70;;;;;;5013949;28;20087;-73
2020/12/13 00:18:48;;;;;;;9.05;3.75;;;9.70;77.60;;;;;;5013222;28;20065;-73
2020/12/13 00:21:15;;;;;;;11.45;4.10;;;9.50;77.60;;;;;;5014793;28;20037;-73
2020/12/13 00:23:41;;;;;;;11.32;4.35;;;9.10;77.50;;;;;;5014149;28;20044;-73
2020/12/13 00:26:11;;;;;;;8.52;4.07;;;9.00;77.40;;;;;;5014606;28;20121;-73
2020/12/13 00:28:38;;;;;;;11.32;4.28;;;9.70;78.10;;;;;;5014256;28;20076;-73
2020/12/13 00:31:11;;;;;;;11.40;4.72;;;9.50;77.80;;;;;;5014369;28;20034;-73
2020/12/13 00:33:37;;;;;;;11.13;4.43;;;9.30;77.90;;;;;;5014431;28;20065;-73
2020/12/13 00:36:03;;;;;;;11.88;4.28;;;9.40;77.80;;;;;;5014576;28;20524;-73
2020/12/13 00:38:29;;;;;;;12.20;4.30;;;9.40;77.90;;;;;;5014213;28;20030;-73
2020/12/13 00:40:54;;;;;;;12.77;4.50;;;9.20;77.70;;;;;;5014281;28;20074;-73
2020/12/13 00:43:20;;;;;;;9.07;4.07;;;9.20;77.80;;;;;;5014144;28;20548;-73
2020/12/13 00:45:46;;;;;;;13.23;4.10;;;9.30;77.70;;;;;;5014468;28;20052;-73
2020/12/13 00:48:12;;;;;;;10.45;4.13;;;9.40;78.00;;;;;;5014127;28;20045;-74
2020/12/13 00:50:39;;;;;;;13.93;6.00;;;9.60;78.20;;;;;;5013579;28;20030;-73
2020/12/13 00:53:09;;;;;;;12.50;5.95;;;9.30;78.00;;;;;;5014393;28;20507;-73
2020/12/13 00:55:35;;;;;;;11.73;5.28;;;9.40;78.20;;;;;;5013660;28;20038;-73
2020/12/13 00:58:00;;;;;;;14.88;6.13;;;9.20;78.20;;;;;;5029319;28;20041;-73
2020/12/13 01:00:27;;;;;;;16.15;7.40;;;9.40;78.50;;;;;;5033318;28;20374;-73
2020/12/13 01:02:57;;;;;;;19.38;9.25;;;9.40;78.70;;;;;;5033699;28;20033;-73
2020/12/13 01:05:27;;;;;;;16.67;9.15;;;9.10;78.40;;;;;;5033882;28;20124;-73
2020/12/13 01:07:53;;;;;;;17.30;9.05;;;8.80;78.40;;;;;;5032642;28;20045;-73
2020/12/13 01:10:20;;;;;;;19.95;10.00;;;9.50;78.70;;;;;;5031871;28;20035;-73
2020/12/13 01:12:46;;;;;;;17.33;7.90;;;9.30;78.80;;;;;;5033215;28;20148;-73
2020/12/13 01:15:12;;;;;;;24.90;9.60;;;8.90;78.40;;;;;;5032426;28;20037;-73
2020/12/13 01:17:38;;;;;;;17.63;8.48;;;9.10;78.60;;;;;;5033665;28;20381;-73
2020/12/13 01:20:05;;;;;;;13.35;7.15;;;9.20;78.90;;;;;;5033626;28;20100;-73
2020/12/13 01:22:35;;;;;;;12.20;6.38;;;9.50;78.90;;;;;;5036490;28;20485;-73
2020/12/13 01:25:02;;;;;;;11.88;6.15;;;9.40;79.20;;;;;;5034217;28;20038;-73
2020/12/13 01:27:28;;;;;;;11.73;5.85;;;9.60;79.20;;;;;;5034714;28;20037;-73
2020/12/13 01:29:54;;;;;;;11.57;5.85;;;9.30;79.10;;;;;;5036936;28;20519;-73
2020/12/13 01:32:20;;;;;;;11.82;5.68;;;8.90;78.90;;;;;;5037389;28;20072;-73
2020/12/13 01:34:45;;;;;;;17.85;7.88;;;9.20;79.00;;;;;;5023782;28;20029;-73
2020/12/13 01:37:11;;;;;;;16.88;8.70;;;9.20;79.00;;;;;;5017034;28;20037;-73
2020/12/13 01:39:37;;;;;;;20.13;8.50;;;9.20;79.00;;;;;;5017302;28;20029;-73
2020/12/13 01:42:03;;;;;;;14.40;7.68;;;9.60;79.20;;;;;;5017096;28;20065;-73
2020/12/13 01:44:33;;;;;;;15.75;7.78;;;9.50;79.20;;;;;;5017074;28;20029;-73
2020/12/13 01:47:00;;;;;;;20.05;9.32;;;9.70;78.60;;;;;;5016967;28;20034;-73
2020/12/13 01:49:38;;;;;;;21.15;10.88;;;9.70;79.30;;;;;;5017085;28;20054;-73
2020/12/13 01:54:35;;;;;;;21.02;10.63;;;9.50;79.30;;;;;;5016996;28;20069;-73
2020/12/13 01:57:02;;;;;;;24.40;11.57;;;9.00;79.20;;;;;;5016672;28;20478;-73
2020/12/13 01:59:30;;;;;;;20.17;10.40;;;9.40;79.60;;;;;;5015434;28;20535;-73
2020/12/13 02:01:58;;;;;;;21.67;9.98;;;8.10;78.90;;;;;;5015916;28;20072;-74
2020/12/13 02:04:26;;;;;;;24.05;9.38;;;9.50;79.90;;;;;;5017099;28;20064;-73
2020/12/13 02:06:54;;;;;;;23.98;10.02;;;9.80;80.10;;;;;;5017147;28;20038;-73
2020/12/13 02:09:24;;;;;;;19.27;9.38;;;9.30;79.70;;;;;;5017174;28;20044;-74
2020/12/13 02:11:50;;;;;;;17.60;8.77;;;9.60;80.10;;;;;;5017281;28;20041;-74
2020/12/13 02:14:16;;;;;;;17.13;8.65;;;9.80;80.10;;;;;;5017062;28;20062;-73
2020/12/13 02:16:43;;;;;;;14.15;7.68;;;9.40;80.40;;;;;;5016483;28;20069;-73
2020/12/13 02:19:11;;;;;;;19.27;8.13;;;9.60;80.00;;;;;;5016695;28;20485;-73
2020/12/13 02:21:42;;;;;;;22.45;8.75;;;9.40;80.00;;;;;;5016627;28;20111;-74
2020/12/13 02:24:08;;;;;;;17.48;7.82;;;9.80;80.20;;;;;;5016552;28;20037;-74
2020/12/13 02:26:41;;;;;;;16.55;8.80;;;9.70;80.00;;;;;;5020609;28;20036;-74
2020/12/13 02:29:08;;;;;;;16.58;7.63;;;9.40;80.00;;;;;;5034709;28;20033;-74
2020/12/13 02:31:34;;;;;;;14.57;7.75;;;9.60;80.30;;;;;;5031584;28;20527;-74
2020/12/13 02:34:02;;;;;;;14.32;7.68;;;9.40;80.10;;;;;;5015283;28;20042;-74
2020/12/13 02:36:29;;;;;;;16.38;8.10;;;9.70;80.40;;;;;;5014646;28;20100;-74
2020/12/13 02:38:55;;;;;;;13.60;6.85;;;9.20;80.00;;;;;;5014280;28;20044;-74
2020/12/13 02:41:20;;;;;;;12.90;6.20;;;9.30;80.20;;;;;;5015809;28;20029;-74
2020/12/13 02:43:46;;;;;;;13.25;5.97;;;9.50;80.50;;;;;;5014911;28;20092;-74
2020/12/13 02:46:12;;;;;;;13.18;5.80;;;9.60;80.70;;;;;;5014983;28;20034;-74
2020/12/13 02:48:38;;;;;;;14.20;5.80;;;9.60;80.80;;;;;;5015234;28;20064;-74
2020/12/13 02:51:04;;;;;;;13.10;5.63;;;9.40;80.70;;;;;;5015806;28;20034;-74
2020/12/13 02:53:30;;;;;;;12.00;5.43;;;9.10;80.50;;;;;;5028093;28;20497;-74
2020/12/13 02:55:55;;;;;;;14.77;4.78;;;10.00;81.30;;;;;;5034371;28;20045;-74
2020/12/13 02:58:21;;;;;;;10.18;4.82;;;9.70;81.20;;;;;;5030809;28;20077;-74
2020/12/13 03:00:47;;;;;;;12.38;5.10;;;9.50;81.30;;;;;;5035616;28;20065;-74
2020/12/13 03:03:13;;;;;;;11.38;5.15;;;9.60;81.40;;;;;;5034365;28;20435;-74
2020/12/13 03:05:39;;;;;;;15.63;5.07;;;9.50;81.20;;;;;;5035412;28;20116;-74
2020/12/13 03:08:05;;;;;;;10.70;4.85;;;9.30;81.10;;;;;;5025875;28;20042;-74
2020/12/13 03:10:30;;;;;;;11.50;4.63;;;10.00;81.70;;;;;;5015967;28;20500;-74
2020/12/13 03:12:56;;;;;;;11.02;4.22;;;9.60;81.50;;;;;;5014276;28;20066;-74
2020/12/13 03:15:22;;;;;;;9.85;4.28;;;9.60;82.20;;;;;;5015628;28;20041;-74
2020/12/13 03:17:47;;;;;;;11.23;3.67;;;10.10;81.90;;;;;;5015625;28;20527;-74
2020/12/13 03:20:13;;;;;;;11.50;3.00;;;9.70;82.40;;;;;;5015167;28;20037;-74
2020/12/13 03:22:39;;;;;;;10.43;2.90;;;10.00;82.10;;;;;;5015736;28;20042;-74
2020/12/13 03:25:05;;;;;;;6.05;2.28;;;9.50;81.90;;;;;;5015367;28;20069;-74
2020/12/13 03:27:31;;;;;;;7.40;2.42;;;9.90;82.10;;;;;;5013388;28;20488;-74
2020/12/13 03:29:57;;;;;;;10.68;2.22;;;10.10;82.50;;;;;;5014424;28;20077;-74
2020/12/13 03:32:23;;;;;;;10.55;2.10;;;9.60;82.40;;;;;;5015443;28;20038;-74
2020/12/13 03:34:49;;;;;;;10.00;1.90;;;9.50;82.40;;;;;;5015226;28;20072;-74
2020/12/13 03:37:17;;;;;;;5.68;1.45;;;10.20;82.90;;;;;;5015780;28;20050;-74
2020/12/13 03:39:43;;;;;;;9.65;1.90;;;9.60;82.40;;;;;;5015336;28;20045;-74
2020/12/13 03:42:09;;;;;;;6.22;1.65;;;10.20;82.80;;;;;;5013442;28;20064;-74
2020/12/13 03:44:35;;;;;;;7.13;1.52;;;9.80;82.70;;;;;;5014867;28;20474;-74
2020/12/13 03:47:01;;;;;;;5.25;1.25;;;10.00;82.80;;;;;;5014971;28;20065;-74
2020/12/13 03:49:26;;;;;;;6.88;1.20;;;9.70;82.60;;;;;;5014249;28;20053;-74
2020/12/13 03:51:52;;;;;;;8.38;1.30;;;9.80;82.80;;;;;;5013922;28;20036;-74
2020/12/13 03:54:18;;;;;;;8.65;0.90;;;9.80;82.90;;;;;;5014836;28;20382;-74
2020/12/13 03:56:44;;;;;;;7.10;0.80;;;10.10;83.30;;;;;;5014469;28;20513;-74
2020/12/13 03:59:10;;;;;;;5.15;0.45;;;9.80;83.10;;;;;;5012947;28;20033;-74
2020/12/13 04:01:36;;;;;;;7.18;0.75;;;10.20;83.70;;;;;;5024115;28;20061;-74
2020/12/13 04:04:01;;;;;;;4.72;0.50;;;9.80;83.30;;;;;;5014600;28;20129;-74
2020/12/13 04:06:27;;;;;;;8.95;0.73;;;10.20;83.60;;;;;;5014353;28;20428;-74
2020/12/13 04:08:53;;;;;;;5.28;0.60;;;9.70;83.30;;;;;;5025125;28;20091;-74
2020/12/13 04:11:19;;;;;;;4.43;0.52;;;10.10;83.40;;;;;;5034437;28;20037;-74
2020/12/13 04:13:45;;;;;;;4.82;0.40;;;10.30;83.50;;;;;;5033352;28;20037;-74
2020/12/13 04:16:13;;;;;;;7.15;0.65;;;9.80;83.30;;;;;;5034238;28;20505;-74
2020/12/13 04:18:39;;;;;;;7.15;0.40;;;10.00;83.70;;;;;;5032844;28;20033;-74
2020/12/13 04:21:05;;;;;;;5.07;0.40;;;10.20;83.80;;;;;;5033861;28;20524;-74
2020/12/13 04:23:34;;;;;;;2.70;0.30;;;10.40;83.80;;;;;;5033776;28;20037;-74
2020/12/13 04:26:00;;;;;;;8.38;0.43;;;10.00;83.90;;;;;;5034380;28;20043;-74
2020/12/13 04:28:25;;;;;;;6.03;0.40;;;10.10;83.90;;;;;;5034295;28;20132;-74
2020/12/13 04:30:51;;;;;;;10.52;0.43;;;10.10;84.00;;;;;;5033918;28;20037;-74
2020/12/13 04:33:17;;;;;;;8.32;0.32;;;10.40;84.50;;;;;;5033994;28;20124;-74
2020/12/13 04:35:43;;;;;;;10.93;0.30;;;10.30;84.50;;;;;;5032761;28;20041;-74
2020/12/13 04:38:09;;;;;;;9.82;0.57;;;10.20;84.40;;;;;;5033859;28;20413;-74
2020/12/13 04:40:35;;;;;;;8.52;0.43;;;10.30;84.10;;;;;;5034106;28;20075;-74
2020/12/13 04:43:01;;;;;;;6.32;0.20;;;10.30;84.30;;;;;;5022315;28;20493;-74
2020/12/13 04:45:28;;;;;;;8.60;0.30;;;10.40;84.30;;;;;;5012969;28;20100;-74
2020/12/13 04:48:15;;;;;;;7.28;0.43;;;10.00;84.00;;;;;;5014388;28;20030;-74
2020/12/13 04:50:40;;;;;;;11.00;0.45;;;10.00;84.70;;;;;;5014113;28;20593;-74
2020/12/13 04:53:08;;;;;;;10.10;0.50;;;10.20;84.60;;;;;;5013581;28;20058;-74
2020/12/13 04:55:58;;;;;;;8.90;0.40;;;10.00;84.50;;;;;;5013070;28;20133;-74
2020/12/13 04:58:26;;;;;;;10.75;0.50;;;10.40;84.30;;;;;;5016220;28;20038;-74
2020/12/13 05:00:57;;;;;;;7.07;0.60;;;9.90;84.50;;;;;;5016187;28;20030;-74
2020/12/13 05:03:25;;;;;;;7.00;0.40;;;10.00;84.90;;;;;;5016086;28;20029;-74
2020/12/13 05:05:51;;;;;;;7.78;0.60;;;10.30;84.70;;;;;;5016807;28;20033;-74
2020/12/13 05:08:17;;;;;;;6.78;0.45;;;10.10;84.40;;;;;;5014896;28;20072;-74
2020/12/13 05:10:43;;;;;;;9.63;0.63;;;10.00;84.50;;;;;;5016596;28;20034;-74
2020/12/13 05:13:10;;;;;;;8.50;0.75;;;10.10;84.30;;;;;;5017535;28;20124;-74
2020/12/13 05:15:37;;;;;;;5.32;0.30;;;10.00;84.50;;;;;;5017778;28;20042;-74
2020/12/13 05:18:04;;;;;;;7.90;0.60;;;10.30;85.00;;;;;;5030592;28;20042;-74
2020/12/13 05:20:30;;;;;;;6.10;0.55;;;10.20;84.70;;;;;;5036828;28;20084;-74
2020/12/13 05:22:57;;;;;;;7.53;0.60;;;10.40;85.00;;;;;;5036592;28;20037;-74
2020/12/13 05:25:39;;;;;;;12.48;0.70;;;10.50;84.90;;;;;;5037377;28;20037;-74
2020/12/13 05:28:14;;;;;;;8.50;0.60;;;10.10;84.30;;;;;;5037145;28;20041;-74
2020/12/13 05:30:45;;;;;;;4.47;0.68;;;10.10;84.50;;;;;;5035538;28;20034;-74
2020/12/13 05:33:29;;;;;;;6.18;0.80;;;10.30;84.80;;;;;;5036403;28;20045;-74
2020/12/13 05:36:11;;;;;;;11.40;0.88;;;10.30;85.30;;;;;;5036697;28;20132;-74
2020/12/13 05:38:40;;;;;;;8.88;0.88;;;10.60;85.40;;;;;;5037153;28;20048;-74
2020/12/13 05:41:07;;;;;;;13.48;0.88;;;10.80;85.50;;;;;;5036921;28;20409;-74
2020/12/13 05:43:38;;;;;;;5.82;0.70;;;10.50;85.40;;;;;;5036749;28;20036;-74
2020/12/13 05:51:40;;;;;;;8.82;0.63;;;10.50;86.20;;;;;;4995270;28;20038;-74
2020/12/13 05:54:12;;;;;;;4.68;0.70;;;10.30;85.40;;;;;;5028558;28;20037;-74
2020/12/13 05:56:39;;;;;;;5.38;0.73;;;10.80;86.00;;;;;;5019487;28;20065;-74
2020/12/13 05:59:06;;;;;;;5.40;0.50;;;10.20;86.10;;;;;;5032360;28;20049;-74
2020/12/13 06:01:35;;;;;;;6.03;0.60;;;10.40;86.40;;;;;;5017051;28;20037;-74
2020/12/13 06:04:07;;;;;;;3.65;0.50;;;10.20;86.00;;;;;;5015595;28;20038;-74
2020/12/13 06:06:40;;;;;;;7.93;0.50;;;10.50;86.30;;;;;;5016549;28;20038;-74
2020/12/13 06:09:13;;;;;;;4.03;0.45;;;10.80;86.40;;;;;;5011377;28;20068;-75
2020/12/13 06:11:48;;;;;;;6.13;0.40;;;10.20;85.40;;;;;;5014546;28;20077;-74
2020/12/13 06:14:20;;;;;;;3.85;0.28;;;10.70;86.70;;;;;;5016218;28;20087;-74
2020/12/13 06:16:46;;;;;;;7.93;0.22;;;10.30;85.80;;;;;;5015284;28;20636;-74
2020/12/13 06:19:15;;;;;;;5.88;0.40;;;10.50;86.50;;;;;;5015987;28;20038;-74
2020/12/13 06:21:43;;;;;;;4.78;0.22;;;10.50;86.40;;;;;;5015594;28;20080;-74
2020/12/13 06:24:09;;;;;;;4.22;0.30;;;10.70;87.30;;;;;;5015062;28;20056;-74
2020/12/13 06:26:36;;;;;;;3.05;0.30;;;10.60;86.50;;;;;;5030952;28;20485;-74
2020/12/13 06:29:04;;;;;;;7.25;0.40;;;10.40;86.90;;;;;;5015437;28;20481;-74
2020/12/13 06:31:38;;;;;;;4.07;0.32;;;10.80;87.40;;;;;;5014914;28;20065;-74
2020/12/13 06:34:05;;;;;;;2.35;0.20;;;10.60;86.10;;;;;;5015450;28;20041;-74
2020/12/13 06:36:33;;;;;;;3.08;0.22;;;10.50;86.70;;;;;;5030923;28;20045;-74
2020/12/13 06:38:59;;;;;;;2.50;0.20;;;10.80;86.90;;;;;;5015168;28;20040;-74
2020/12/13 06:41:27;;;;;;;3.47;0.30;;;10.10;86.40;;;;;;5030896;28;20035;-74
2020/12/13 06:43:56;;;;;;;1.70;0.15;;;10.50;86.90;;;;;;5015553;28;20042;-74
2020/12/13 06:46:27;;;;;;;3.05;0.17;;;10.50;87.00;;;;;;5015544;28;20034;-74
2020/12/13 06:48:54;;;;;;;5.35;0.10;;;10.80;86.60;;;;;;5015206;28;20065;-74
2020/12/13 06:51:27;;;;;;;3.08;0.15;;;10.40;86.80;;;;;;5030134;28;20037;-74
2020/12/13 06:53:53;;;;;;;3.80;0.10;;;10.80;87.10;;;;;;5014885;28;20061;-74
2020/12/13 06:56:20;;;;;;;2.20;0.10;;;11.30;87.20;;;;;;5030254;28;20042;-74
2020/12/13 06:59:00;;;;;;;2.75;0.10;;;10.90;87.20;;;;;;5014863;28;20044;-74
2020/12/13 07:01:37;;;;;;;0.65;0.10;;;10.80;87.30;;;;;;5014306;28;20068;-74
2020/12/13 07:04:35;;;;;;;1.90;0.05;;;11.10;87.10;;;;;;5013878;28;20040;-75
2020/12/13 07:07:19;;;;;;;1.40;0.10;;;11.00;87.90;;;;;;4998489;28;20037;-75
2020/12/13 07:09:48;;;;;;;1.42;0.10;;;11.20;87.60;;;;;;5029561;28;20493;-75
2020/12/13 07:12:14;;;;;;;1.52;0.00;;;11.00;87.90;;;;;;5014041;28;20038;-75
2020/12/13 07:14:42;;;;;;;2.67;0.00;;;11.10;88.10;;;;;;5014965;28;20128;-74
2020/12/13 07:17:17;;;;;;;1.95;0.00;;;10.80;87.90;;;;;;5029047;28;20069;-74
2020/12/13 07:19:43;;;;;;;3.28;0.00;;;11.40;88.00;;;;;;5028896;28;20071;-74
2020/12/13 07:22:12;;;;;;;1.42;0.00;;;11.00;87.60;;;;;;5014841;28;20533;-74
2020/12/13 07:24:40;;;;;;;0.50;0.00;;;10.90;87.70;;;;;;5015220;28;20037;-74
2020/12/13 07:27:08;;;;;;;0.60;0.00;;;11.00;88.10;;;;;;5014814;28;20133;-75
2020/12/13 07:29:35;;;;;;;1.27;0.00;;;11.10;88.90;;;;;;5015218;28;20100;-75
2020/12/13 07:32:04;;;;;;;1.25;0.00;;;10.80;88.50;;;;;;5014982;28;20037;-74
2020/12/13 07:34:31;;;;;;;1.98;0.00;;;11.20;87.90;;;;;;5013779;28;20038;-74
2020/12/13 07:37:00;;;;;;;0.43;0.00;;;10.90;88.40;;;;;;5014986;28;20068;-73
2020/12/13 07:39:29;;;;;;;0.10;0.00;;;11.00;88.90;;;;;;5014933;28;20044;-74
2020/12/13 07:41:55;;;;;;;0.75;0.00;;;11.00;88.00;;;;;;5014741;28;20046;-74
2020/12/13 07:44:21;;;;;;;1.20;0.00;;;11.00;88.60;;;;;;5015160;28;20042;-75
2020/12/13 07:46:47;;;;;;;0.82;0.00;;;11.00;88.70;;;;;;5014948;28;20060;-74
2020/12/13 07:49:21;;;;;;;2.15;0.00;;;11.00;88.70;;;;;;5015072;28;20054;-74
2020/12/13 07:51:48;;;;;;;0.70;0.00;;;10.90;88.10;;;;;;5015445;28;20030;-75
2020/12/13 07:54:26;;;;;;;0.40;0.00;;;11.60;88.80;;;;;;5015135;28;20044;-76
2020/12/13 07:57:15;;;;;;;0.13;0.00;;;10.90;88.60;;;;;;5014429;28;20046;-75
2020/12/13 07:59:41;;;;;;;1.08;0.00;;;10.80;88.80;;;;;;5015152;28;20029;-75
2020/12/13 08:02:11;;;;;;;1.10;0.00;;;11.50;89.00;;;;;;5014365;28;20112;-75
2020/12/13 08:04:41;;;;;;;1.58;0.00;;;11.40;88.90;;;;;;5014720;28;20038;-75
2020/12/13 08:07:12;;;;;;;0.55;0.00;;;11.60;88.90;;;;;;5014645;28;20121;-75
2020/12/13 08:09:42;;;;;;;0.30;0.00;;;11.40;88.70;;;;;;5010476;28;20040;-74
2020/12/13 08:12:09;;;;;;;0.00;0.00;;;11.30;88.90;;;;;;5028485;28;20076;-74
2020/12/13 08:14:35;;;;;;;0.38;0.00;;;11.80;89.20;;;;;;5013577;28;20073;-73
2020/12/13 08:17:00;;;;;;;0.73;0.00;;;11.40;89.10;;;;;;5012811;28;20069;-74
2020/12/13 08:19:47;;;;;;;0.43;0.00;;;11.40;89.00;;;;;;5013391;28;20034;-73
2020/12/13 08:22:22;;;;;;;0.20;0.00;;;11.00;89.20;;;;;;5013541;28;20088;-74
2020/12/13 08:25:04;;;;;;;0.77;0.10;;;11.30;88.60;;;;;;5011506;28;20034;-75
2020/12/13 08:27:32;;;;;;;0.40;0.10;;;11.70;88.80;;;;;;5011585;28;20038;-74
2020/12/13 08:29:58;;;;;;;1.13;0.45;;;11.50;89.70;;;;;;5013074;28;20026;-74
2020/12/13 08:32:35;;;;;;;1.60;0.70;;;11.30;88.90;;;;;;5012552;28;20042;-74
2020/12/13 08:35:12;;;;;;;4.20;1.35;;;11.20;88.60;;;;;;5013020;28;20033;-74
2020/12/13 08:37:38;;;;;;;2.22;1.50;;;11.80;89.50;;;;;;5025988;28;20046;-74
2020/12/13 08:40:10;;;;;;;2.00;0.80;;;11.70;89.30;;;;;;5002169;28;20129;-74
2020/12/13 08:42:36;;;;;;;1.20;0.43;;;11.80;89.60;;;;;;5023326;28;20227;-75
2020/12/13 08:45:03;;;;;;;1.20;0.47;;;11.80;89.40;;;;;;5021313;28;20544;-74
2020/12/13 08:47:31;;;;;;;2.63;0.52;;;12.00;89.40;;;;;;5010302;28;20038;-74
2020/12/13 08:49:57;;;;;;;2.22;0.52;;;11.80;89.20;;;;;;5005123;28;20046;-74
2020/12/13 08:52:26;;;;;;;1.70;0.60;;;11.90;89.70;;;;;;5008049;28;20046;-75
2020/12/13 08:54:57;;;;;;;0.90;0.40;;;11.80;89.80;;;;;;5012282;28;20556;-74
2020/12/13 08:57:26;;;;;;;1.60;0.40;;;12.30;90.00;;;;;;5004561;28;20512;-74
2020/12/13 09:00:06;;;;;;;1.42;0.47;;;12.20;90.00;;;;;;4993845;28;20122;-74
2020/12/13 09:02:32;;;;;;;0.88;0.20;;;12.40;89.70;;;;;;4993101;28;20405;-74
2020/12/13 09:04:59;;;;;;;1.73;0.40;;;12.00;89.90;;;;;;4997453;28;20030;-74
2020/12/13 09:07:34;;;;;;;0.98;0.50;;;12.40;90.00;;;;;;5001672;28;20037;-73
2020/12/13 09:10:09;;;;;;;2.45;0.85;;;12.30;90.00;;;;;;4998377;28;20034;-73
2020/12/13 09:12:37;;;;;;;3.38;1.13;;;12.20;90.10;;;;;;4993274;28;20045;-75
2020/12/13 09:15:13;;;;;;;5.15;1.30;;;12.40;90.10;;;;;;4993325;28;20030;-74
2020/12/13 09:17:51;;;;;;;3.88;1.10;;;12.10;90.00;;;;;;4998142;28;20575;-74
2020/12/13 09:20:29;;;;;;;5.03;0.75;;;12.60;90.30;;;;;;4993601;28;20034;-74
2020/12/13 09:23:10;;;;;;;5.05;0.57;;;13.00;90.20;;;;;;4993492;28;20038;-74
2020/12/13 09:25:44;;;;;;;3.72;0.45;;;12.60;90.20;;;;;;4993130;28;20101;-74
2020/12/13 09:28:11;;;;;;;3.13;0.47;;;12.60;90.40;;;;;;4993203;28;20037;-74
2020/12/13 09:30:39;;;;;;;3.97;0.60;;;12.90;90.40;;;;;;4993417;28;20121;-73
2020/12/13 09:33:05;;;;;;;3.33;0.68;;;12.80;90.30;;;;;;4992739;28;20050;-73
2020/12/13 09:35:31;;;;;;;4.05;0.30;;;12.70;90.40;;;;;;4992983;28;20030;-73
2020/12/13 09:37:58;;;;;;;2.88;0.40;;;12.90;90.40;;;;;;4993685;28;20050;-73
2020/12/13 09:40:24;;;;;;;6.13;0.30;;;13.10;90.60;;;;;;4991857;28;20039;-73
2020/12/13 09:42:50;;;;;;;5.63;0.75;;;12.90;90.60;;;;;;4995439;28;20482;-73
2020/12/13 09:45:16;;;;;;;3.50;0.60;;;12.90;90.60;;;;;;4996866;28;20038;-73
2020/12/13 09:47:41;;;;;;;3.95;0.70;;;13.20;90.70;;;;;;4996342;28;20390;-73
2020/12/13 09:50:07;;;;;;;3.28;0.52;;;13.10;90.70;;;;;;4996990;28;20054;-73
2020/12/13 09:52:34;;;;;;;5.25;0.38;;;13.50;90.80;;;;;;4997360;28;20037;-73
2020/12/13 09:55:00;;;;;;;3.47;0.30;;;13.50;90.80;;;;;;4996712;28;20034;-73
2020/12/13 09:57:26;;;;;;;6.07;0.30;;;13.20;90.80;;;;;;4996429;28;20104;-73
2020/12/13 09:59:52;;;;;;;3.90;0.30;;;13.30;90.80;;;;;;4996788;28;20129;-73
2020/12/13 10:02:17;;;;;;;2.25;0.20;;;13.50;90.90;;;;;;4999082;28;20181;-73
2020/12/13 10:04:43;;;;;;;2.22;0.13;;;13.90;91.00;;;;;;4999160;28;20030;-73
2020/12/13 10:09:41;;;;;;;2.42;0.20;;;13.60;90.90;;;;;;4996032;28;20070;-73
2020/12/13 10:12:07;;;;;;;2.08;0.10;;;13.70;90.90;;;;;;4997322;28;20069;-73
2020/12/13 10:14:32;;;;;;;1.67;0.10;;;13.90;91.00;;;;;;4997346;28;20041;-73
2020/12/13 10:16:58;;;;;;;1.17;0.10;;;14.30;91.10;;;;;;4996997;28;20041;-73
2020/12/13 10:19:25;;;;;;;2.15;0.20;;;13.90;90.90;;;;;;5004009;28;20061;-73
2020/12/13 10:21:51;;;;;;;1.63;0.10;;;14.10;91.00;;;;;;5016655;28;20061;-73
2020/12/13 10:24:17;;;;;;;1.10;0.10;;;13.90;91.00;;;;;;5031915;28;20583;-73
2020/12/13 10:26:42;;;;;;;1.85;0.10;;;14.00;91.10;;;;;;5016517;28;20129;-73
2020/12/13 10:29:08;;;;;;;0.93;0.00;;;14.00;91.10;;;;;;5000127;28;20367;-73
2020/12/13 10:31:41;;;;;;;0.45;0.10;;;14.30;91.30;;;;;;5000956;28;20401;-73
2020/12/13 10:34:09;;;;;;;0.40;0.10;;;14.20;91.30;;;;;;5002679;28;20033;-73
2020/12/13 10:36:38;;;;;;;1.70;0.28;;;14.60;91.30;;;;;;5000487;28;20595;-73
2020/12/13 10:39:06;;;;;;;1.90;0.20;;;14.80;91.30;;;;;;4995670;28;20038;-73
2020/12/13 10:41:32;;;;;;;2.15;0.10;;;14.60;91.30;;;;;;4999422;28;20608;-73
2020/12/13 10:43:58;;;;;;;1.60;0.20;;;14.60;91.30;;;;;;5014371;28;20089;-73
2020/12/13 10:46:24;;;;;;;1.30;0.20;;;14.80;91.30;;;;;;5012982;28;20068;-73
2020/12/13 10:48:50;;;;;;;2.85;0.50;;;14.40;91.10;;;;;;5014700;28;20107;-73
2020/12/13 10:51:18;;;;;;;2.30;0.43;;;14.50;91.20;;;;;;5015223;28;20029;-73
2020/12/13 10:53:45;;;;;;;1.42;0.30;;;14.50;91.20;;;;;;5013642;28;20077;-73
2020/12/13 10:56:11;;;;;;;1.20;0.20;;;14.50;91.20;;;;;;5014759;28;20038;-73
2020/12/13 10:58:41;;;;;;;1.88;0.32;;;14.60;91.30;;;;;;5014649;28;20095;-74
2020/12/13 11:01:08;;;;;;;0.60;0.20;;;14.50;91.30;;;;;;5014306;28;20026;-73
2020/12/13 11:03:34;;;;;;;0.85;0.10;;;14.80;91.40;;;;;;5013990;28;20148;-73
2020/12/13 11:06:00;;;;;;;1.13;0.10;;;14.90;91.30;;;;;;5014530;28;20037;-73
2020/12/13 11:08:26;;;;;;;1.20;0.10;;;14.70;91.30;;;;;;5014316;28;20117;-73
2020/12/13 11:10:52;;;;;;;0.88;0.05;;;14.80;91.40;;;;;;5014664;28;20048;-74
2020/12/13 11:13:18;;;;;;;1.95;0.10;;;15.20;91.50;;;;;;5014457;28;20125;-73
2020/12/13 11:15:46;;;;;;;1.67;0.10;;;15.10;91.50;;;;;;5013009;28;20037;-73
2020/12/13 11:18:12;;;;;;;2.20;0.50;;;15.50;91.60;;;;;;5013790;28;20121;-73
2020/12/13 11:20:38;;;;;;;1.48;0.10;;;15.50;91.50;;;;;;5013745;28;20034;-73
2020/12/13 11:23:04;;;;;;;2.33;0.10;;;15.70;91.50;;;;;;5012614;28;20038;-73
2020/12/13 11:25:31;;;;;;;2.00;0.10;;;15.80;91.40;;;;;;5014590;28;20121;-73
2020/12/13 11:27:57;;;;;;;3.83;0.10;;;15.70;91.40;;;;;;5014437;28;20551;-73
2020/12/13 11:30:23;;;;;;;2.42;0.20;;;15.90;91.40;;;;;;5013828;28;20041;-74
2020/12/13 11:32:50;;;;;;;2.80;0.10;;;15.70;91.30;;;;;;5013811;28;20367;-73
2020/12/13 11:35:17;;;;;;;2.85;0.32;;;16.00;91.20;;;;;;5015396;28;20030;-74
2020/12/13 11:37:43;;;;;;;4.03;0.30;;;16.20;91.20;;;;;;5015195;28;20497;-74
2020/12/13 11:40:09;;;;;;;7.90;0.73;;;16.20;91.10;;;;;;5014500;28;20041;-74
2020/12/13 11:42:36;;;;;;;6.93;1.17;;;16.10;90.90;;;;;;5014979;28;20030;-74
2020/12/13 11:45:03;;;;;;;7.25;1.10;;;16.10;91.00;;;;;;5013747;28;20393;-74
2020/12/13 11:47:29;;;;;;;6.25;0.73;;;16.40;91.00;;;;;;5015067;28;20097;-74
2020/12/13 11:49:55;;;;;;;9.13;0.90;;;16.20;91.00;;;;;;5013391;28;20592;-74
2020/12/13 11:52:21;;;;;;;6.80;1.30;;;16.10;90.90;;;;;;5014994;28;20041;-74
2020/12/13 11:54:47;;;;;;;4.53;0.82;;;16.40;90.90;;;;;;5015062;28;20045;-75
2020/12/13 11:57:14;;;;;;;3.47;0.60;;;16.10;90.80;;;;;;5014690;28;20037;-74
2020/12/13 11:59:39;;;;;;;6.97;0.85;;;15.90;90.70;;;;;;5014869;28;20133;-74
2020/12/13 12:02:06;;;;;;;6.63;1.42;;;15.90;90.60;;;;;;5014849;28;20061;-75
2020/12/13 12:04:32;;;;;;;7.28;1.30;;;16.20;90.70;;;;;;5014570;28;20065;-73
2020/12/13 12:06:58;;;;;;;7.07;0.70;;;15.90;90.70;;;;;;5014640;28;20509;-72
2020/12/13 12:09:23;;;;;;;6.60;0.38;;;16.20;90.80;;;;;;5014647;28;20072;-73
2020/12/13 12:11:49;;;;;;;5.35;0.60;;;16.00;90.70;;;;;;5014774;28;20061;-74
2020/12/13 12:14:15;;;;;;;8.35;0.60;;;16.10;90.70;;;;;;5013395;28;20072;-73
2020/12/13 12:16:43;;;;;;;4.45;0.50;;;15.90;90.70;;;;;;5014843;28;20033;-73
2020/12/13 12:19:12;;;;;;;5.85;0.57;;;15.90;90.60;;;;;;5014808;28;20092;-73
2020/12/13 12:21:50;;;;;;;6.72;0.70;;;16.10;90.70;;;;;;5014744;28;20363;-73
2020/12/13 12:24:18;;;;;;;4.55;0.40;;;16.10;90.90;;;;;;5014469;28;20038;-73
2020/12/13 12:26:44;;;;;;;5.57;0.75;;;16.10;90.60;;;;;;5014478;28;20140;-73
2020/12/13 12:29:10;;;;;;;4.65;0.75;;;16.40;90.60;;;;;;5014860;28;20132;-73
2020/12/13 12:31:36;;;;;;;8.55;0.65;;;16.60;90.50;;;;;;5010959;28;20045;-73
2020/12/13 12:34:03;;;;;;;5.80;0.50;;;16.20;90.30;;;;;;5028383;28;20041;-74
2020/12/13 12:36:28;;;;;;;4.95;0.40;;;16.40;90.30;;;;;;5014199;28;20507;-74
2020/12/13 12:38:55;;;;;;;3.47;0.55;;;16.30;90.20;;;;;;5014320;28;20030;-74
2020/12/13 12:41:22;;;;;;;8.85;0.50;;;16.30;90.20;;;;;;5013806;28;20030;-73
2020/12/13 12:43:49;;;;;;;6.95;0.45;;;16.60;90.30;;;;;;5014448;28;20504;-74
2020/12/13 12:46:16;;;;;;;9.07;0.93;;;16.30;90.10;;;;;;5013075;28;20416;-74
2020/12/13 12:48:47;;;;;;;5.20;0.70;;;16.00;90.10;;;;;;5014054;28;20085;-74
2020/12/13 12:51:15;;;;;;;6.47;0.40;;;16.40;90.30;;;;;;5014222;28;20116;-74
2020/12/13 12:53:41;;;;;;;7.40;0.50;;;16.00;90.10;;;;;;5013934;28;20128;-74
2020/12/13 12:56:07;;;;;;;5.20;0.32;;;15.90;90.20;;;;;;5013556;28;20596;-74
2020/12/13 13:01:42;;;;;;;6.75;0.40;;;15.90;90.20;;;;;;5011888;28;20527;-74
2020/12/13 13:04:13;;;;;;;2.97;0.30;;;16.20;90.30;;;;;;5014049;28;20049;-74
2020/12/13 13:06:56;;;;;;;4.28;0.40;;;16.30;90.10;;;;;;5012279;28;20034;-74